sensor_id;sensor_type;location;lat;lon;timestamp;P1;durP1;ratioP1;P2;durP2;ratioP2
39276;SDS011;63149;48.086;-1.606;2023-07-29T05:02:43;3.10;;;1.98;;
39276;SDS011;63149;48.086;-1.606;2023-07-29T05:05:11;4.57;;;1.98;;
39276;SDS011;63149;48.086;-1.606;2023-07-29T05:07:38;3.38;;;1.90;;
39276;SDS011;63149;48.086;-1.606;2023-07-29T05:10:05;2.78;;;1.73;;
39276;SDS011;63149;48.086;-1.606;2023-07-29T05:12:33;2.20;;;1.55;;
39276;SDS011;63149;48.086;-1.606;2023-07-29T05:15:00;2.30;;;1.40;;
39276;SDS011;63149;48.086;-1.606;2023-07-29T05:17:27;1.88;;;1.52;;
39276;SDS011;63149;48.086;-1.606;2023-07-29T05:19:56;2.90;;;1.45;;
39276;SDS011;63149;48.086;-1.606;2023-07-29T05:22:22;2.05;;;1.77;;
39276;SDS011;63149;48.086;-1.606;2023-07-29T05:24:50;2.95;;;1.60;;
39276;SDS011;63149;48.086;-1.606;2023-07-29T05:27:17;2.13;;;1.50;;
39276;SDS011;63149;48.086;-1.606;2023-07-29T05:29:43;1.50;;;1.40;;
39276;SDS011;63149;48.086;-1.606;2023-07-29T05:32:10;2.30;;;1.38;;
39276;SDS011;63149;48.086;-1.606;2023-07-29T05:34:37;2.40;;;1.27;;
39276;SDS011;63149;48.086;-1.606;2023-07-29T05:37:06;1.55;;;1.20;;
39276;SDS011;63149;48.086;-1.606;2023-07-29T05:39:32;2.17;;;1.10;;
39276;SDS011;63149;48.086;-1.606;2023-07-29T05:41:59;1.75;;;1.00;;
39276;SDS011;63149;48.086;-1.606;2023-07-29T05:44:28;1.35;;;0.90;;
39276;SDS011;63149;48.086;-1.606;2023-07-29T05:46:55;1.08;;;0.98;;
39276;SDS011;63149;48.086;-1.606;2023-07-29T05:49:22;2.15;;;1.40;;
39276;SDS011;63149;48.086;-1.606;2023-07-29T05:51:49;1.23;;;1.13;;
39276;SDS011;63149;48.086;-1.606;2023-07-29T05:54:19;1.80;;;0.88;;
39276;SDS011;63149;48.086;-1.606;2023-07-29T05:56:46;1.95;;;1.08;;
39276;SDS011;63149;48.086;-1.606;2023-07-29T05:59:13;2.08;;;0.90;;
39276;SDS011;63149;48.086;-1.606;2023-07-29T06:01:40;1.25;;;0.95;;
39276;SDS011;63149;48.086;-1.606;2023-07-29T06:04:07;0.93;;;0.93;;
39276;SDS011;63149;48.086;-1.606;2023-07-29T06:06:34;1.13;;;1.02;;
39276;SDS011;63149;48.086;-1.606;2023-07-29T06:09:01;2.20;;;1.13;;
39276;SDS011;63149;48.086;-1.606;2023-07-29T06:11:29;1.13;;;0.98;;
39276;SDS011;63149;48.086;-1.606;2023-07-29T06:13:56;2.92;;;1.30;;
39276;SDS011;63149;48.086;-1.606;2023-07-29T06:16:23;2.28;;;1.25;;
39276;SDS011;63149;48.086;-1.606;2023-07-29T06:18:50;1.55;;;1.10;;
39276;SDS011;63149;48.086;-1.606;2023-07-29T06:21:17;2.33;;;1.15;;
39276;SDS011;63149;48.086;-1.606;2023-07-29T06:23:45;2.17;;;1.42;;
39276;SDS011;63149;48.086;-1.606;2023-07-29T06:26:12;1.17;;;1.08;;
39276;SDS011;63149;48.086;-1.606;2023-07-29T06:28:40;1.33;;;1.10;;
39276;SDS011;63149;48.086;-1.606;2023-07-29T06:31:07;1.38;;;1.20;;
39276;SDS011;63149;48.086;-1.606;2023-07-29T06:33:34;2.67;;;1.63;;
39276;SDS011;63149;48.086;-1.606;2023-07-29T06:36:01;2.70;;;1.35;;
39276;SDS011;63149;48.086;-1.606;2023-07-29T06:38:28;1.45;;;1.25;;
39276;SDS011;63149;48.086;-1.606;2023-07-29T06:40:55;2.30;;;1.20;;
39276;SDS011;63149;48.086;-1.606;2023-07-29T06:43:22;1.15;;;1.00;;
39276;SDS011;63149;48.086;-1.606;2023-07-29T06:45:50;1.52;;;1.20;;
39276;SDS011;63149;48.086;-1.606;2023-07-29T06:48:17;2.17;;;1.30;;
39276;SDS011;63149;48.086;-1.606;2023-07-29T06:50:45;1.52;;;1.30;;
39276;SDS011;63149;48.086;-1.606;2023-07-29T06:53:12;2.53;;;1.40;;
39276;SDS011;63149;48.086;-1.606;2023-07-29T06:55:39;2.63;;;1.27;;
39276;SDS011;63149;48.086;-1.606;2023-07-29T06:58:06;3.05;;;1.23;;
39276;SDS011;63149;48.086;-1.606;2023-07-29T07:00:33;5.60;;;1.42;;
39276;SDS011;63149;48.086;-1.606;2023-07-29T07:03:02;2.22;;;1.42;;
39276;SDS011;63149;48.086;-1.606;2023-07-29T07:05:28;1.40;;;1.30;;
39276;SDS011;63149;48.086;-1.606;2023-07-29T07:07:55;5.35;;;1.48;;
39276;SDS011;63149;48.086;-1.606;2023-07-29T07:10:22;1.30;;;1.20;;
39276;SDS011;63149;48.086;-1.606;2023-07-29T07:12:49;1.20;;;1.10;;
39276;SDS011;63149;48.086;-1.606;2023-07-29T07:15:16;2.75;;;1.50;;
39276;SDS011;63149;48.086;-1.606;2023-07-29T07:17:43;1.83;;;1.35;;
39276;SDS011;63149;48.086;-1.606;2023-07-29T07:20:12;1.48;;;1.38;;
39276;SDS011;63149;48.086;-1.606;2023-07-29T07:22:39;3.20;;;1.52;;
39276;SDS011;63149;48.086;-1.606;2023-07-29T07:25:06;1.58;;;1.48;;
39276;SDS011;63149;48.086;-1.606;2023-07-29T07:27:33;1.90;;;1.20;;
39276;SDS011;63149;48.086;-1.606;2023-07-29T07:30:01;4.47;;;1.70;;
39276;SDS011;63149;48.086;-1.606;2023-07-29T07:32:27;1.55;;;1.35;;
39276;SDS011;63149;48.086;-1.606;2023-07-29T07:34:54;1.65;;;1.40;;
39276;SDS011;63149;48.086;-1.606;2023-07-29T07:37:23;2.53;;;1.60;;
39276;SDS011;63149;48.086;-1.606;2023-07-29T07:39:50;1.70;;;1.42;;
39276;SDS011;63149;48.086;-1.606;2023-07-29T07:42:16;2.53;;;1.42;;
39276;SDS011;63149;48.086;-1.606;2023-07-29T07:44:43;1.85;;;1.63;;
39276;SDS011;63149;48.086;-1.606;2023-07-29T07:47:10;1.77;;;1.40;;
39276;SDS011;63149;48.086;-1.606;2023-07-29T07:49:37;2.83;;;1.50;;
39276;SDS011;63149;48.086;-1.606;2023-07-29T07:52:04;1.67;;;1.58;;
39276;SDS011;63149;48.086;-1.606;2023-07-29T07:54:33;4.30;;;1.85;;
39276;SDS011;63149;48.086;-1.606;2023-07-29T07:57:00;2.25;;;1.60;;
39276;SDS011;63149;48.086;-1.606;2023-07-29T07:59:27;2.90;;;1.40;;
39276;SDS011;63149;48.086;-1.606;2023-07-29T08:01:53;3.97;;;1.67;;
39276;SDS011;63149;48.086;-1.606;2023-07-29T08:04:20;2.53;;;1.90;;
39276;SDS011;63149;48.086;-1.606;2023-07-29T08:06:47;2.67;;;1.98;;
39276;SDS011;63149;48.086;-1.606;2023-07-29T08:11:51;2.13;;;1.93;;
39276;SDS011;63149;48.086;-1.606;2023-07-29T08:14:18;1.90;;;1.70;;
39276;SDS011;63149;48.086;-1.606;2023-07-29T08:16:45;2.78;;;1.73;;
39276;SDS011;63149;48.086;-1.606;2023-07-29T08:19:12;5.72;;;1.80;;
39276;SDS011;63149;48.086;-1.606;2023-07-29T08:21:40;3.15;;;1.80;;
39276;SDS011;63149;48.086;-1.606;2023-07-29T08:24:07;3.28;;;2.10;;
39276;SDS011;63149;48.086;-1.606;2023-07-29T08:26:34;3.60;;;1.70;;
39276;SDS011;63149;48.086;-1.606;2023-07-29T08:29:02;5.10;;;1.60;;
39276;SDS011;63149;48.086;-1.606;2023-07-29T08:31:29;2.38;;;1.45;;
39276;SDS011;63149;48.086;-1.606;2023-07-29T08:33:58;3.95;;;1.67;;
39276;SDS011;63149;48.086;-1.606;2023-07-29T08:36:25;2.80;;;2.05;;
39276;SDS011;63149;48.086;-1.606;2023-07-29T08:38:53;2.28;;;1.65;;
39276;SDS011;63149;48.086;-1.606;2023-07-29T08:41:21;2.78;;;1.52;;
39276;SDS011;63149;48.086;-1.606;2023-07-29T08:43:53;2.28;;;1.50;;
39276;SDS011;63149;48.086;-1.606;2023-07-29T08:46:33;3.47;;;1.40;;
39276;SDS011;63149;48.086;-1.606;2023-07-29T08:49:01;3.03;;;1.92;;
39276;SDS011;63149;48.086;-1.606;2023-07-29T08:51:28;4.40;;;1.85;;
39276;SDS011;63149;48.086;-1.606;2023-07-29T08:53:57;3.78;;;1.65;;
39276;SDS011;63149;48.086;-1.606;2023-07-29T08:56:25;4.90;;;1.77;;
39276;SDS011;63149;48.086;-1.606;2023-07-29T08:58:53;3.58;;;1.85;;
39276;SDS011;63149;48.086;-1.606;2023-07-29T09:06:32;2.65;;;1.50;;
39276;SDS011;63149;48.086;-1.606;2023-07-29T09:19:24;2.10;;;1.45;;
39276;SDS011;63149;48.086;-1.606;2023-07-29T09:21:53;1.73;;;1.30;;
39276;SDS011;63149;48.086;-1.606;2023-07-29T09:24:21;3.13;;;1.33;;
39276;SDS011;63149;48.086;-1.606;2023-07-29T09:29:23;3.70;;;1.90;;
39276;SDS011;63149;48.086;-1.606;2023-07-29T09:31:53;3.07;;;1.40;;
39276;SDS011;63149;48.086;-1.606;2023-07-29T09:37:21;1.92;;;1.50;;
39276;SDS011;63149;48.086;-1.606;2023-07-29T09:45:00;2.08;;;1.40;;
39276;SDS011;63149;48.086;-1.606;2023-07-29T09:47:28;2.92;;;1.35;;
39276;SDS011;63149;48.086;-1.606;2023-07-29T09:49:55;1.77;;;1.42;;
39276;SDS011;63149;48.086;-1.606;2023-07-29T09:52:23;5.00;;;1.67;;
39276;SDS011;63149;48.086;-1.606;2023-07-29T09:54:51;2.60;;;1.77;;
39276;SDS011;63149;48.086;-1.606;2023-07-29T10:05:05;4.85;;;1.88;;
39276;SDS011;63149;48.086;-1.606;2023-07-29T10:07:34;1.73;;;1.48;;
39276;SDS011;63149;48.086;-1.606;2023-07-29T10:12:39;3.65;;;1.60;;
39276;SDS011;63149;48.086;-1.606;2023-07-29T10:22:55;1.60;;;1.50;;
39276;SDS011;63149;48.086;-1.606;2023-07-29T10:25:25;3.22;;;1.50;;
39276;SDS011;63149;48.086;-1.606;2023-07-29T10:28:01;2.88;;;1.55;;
39276;SDS011;63149;48.086;-1.606;2023-07-29T10:30:31;3.08;;;1.42;;
39276;SDS011;63149;48.086;-1.606;2023-07-29T10:32:58;6.65;;;1.85;;
39276;SDS011;63149;48.086;-1.606;2023-07-29T10:35:28;5.35;;;1.80;;
39276;SDS011;63149;48.086;-1.606;2023-07-29T10:37:56;2.60;;;1.65;;
39276;SDS011;63149;48.086;-1.606;2023-07-29T10:40:24;3.47;;;2.10;;
39276;SDS011;63149;48.086;-1.606;2023-07-29T10:43:00;3.20;;;1.58;;
39276;SDS011;63149;48.086;-1.606;2023-07-29T10:45:36;1.80;;;1.48;;
39276;SDS011;63149;48.086;-1.606;2023-07-29T10:53:16;2.17;;;1.75;;
39276;SDS011;63149;48.086;-1.606;2023-07-29T10:55:43;2.15;;;1.67;;
39276;SDS011;63149;48.086;-1.606;2023-07-29T10:58:14;3.72;;;1.60;;
39276;SDS011;63149;48.086;-1.606;2023-07-29T11:00:43;2.17;;;1.42;;
39276;SDS011;63149;48.086;-1.606;2023-07-29T11:03:11;3.13;;;1.60;;
39276;SDS011;63149;48.086;-1.606;2023-07-29T11:05:46;2.10;;;1.30;;
39276;SDS011;63149;48.086;-1.606;2023-07-29T11:08:19;2.65;;;1.20;;
39276;SDS011;63149;48.086;-1.606;2023-07-29T11:11:00;1.50;;;1.40;;
39276;SDS011;63149;48.086;-1.606;2023-07-29T11:13:29;1.63;;;1.50;;
39276;SDS011;63149;48.086;-1.606;2023-07-29T11:15:57;2.55;;;1.50;;
39276;SDS011;63149;48.086;-1.606;2023-07-29T11:18:26;2.35;;;1.80;;
39276;SDS011;63149;48.086;-1.606;2023-07-29T11:20:55;3.40;;;1.40;;
39276;SDS011;63149;48.086;-1.606;2023-07-29T11:23:34;1.48;;;1.38;;
39276;SDS011;63149;48.086;-1.606;2023-07-29T11:26:02;1.63;;;1.40;;
39276;SDS011;63149;48.086;-1.606;2023-07-29T11:28:31;2.45;;;1.63;;
39276;SDS011;63149;48.086;-1.606;2023-07-29T11:31:04;2.38;;;1.17;;
39276;SDS011;63149;48.086;-1.606;2023-07-29T11:33:31;3.28;;;1.70;;
39276;SDS011;63149;48.086;-1.606;2023-07-29T11:35:58;1.52;;;1.25;;
39276;SDS011;63149;48.086;-1.606;2023-07-29T11:38:25;3.10;;;1.40;;
39276;SDS011;63149;48.086;-1.606;2023-07-29T11:40:58;2.55;;;1.80;;
39276;SDS011;63149;48.086;-1.606;2023-07-29T11:43:28;2.58;;;1.40;;
39276;SDS011;63149;48.086;-1.606;2023-07-29T11:45:54;2.03;;;1.83;;
39276;SDS011;63149;48.086;-1.606;2023-07-29T11:48:28;1.60;;;1.20;;
39276;SDS011;63149;48.086;-1.606;2023-07-29T11:50:58;3.20;;;1.55;;
39276;SDS011;63149;48.086;-1.606;2023-07-29T11:53:26;2.47;;;1.42;;
39276;SDS011;63149;48.086;-1.606;2023-07-29T11:55:54;1.90;;;1.27;;
39276;SDS011;63149;48.086;-1.606;2023-07-29T11:58:23;3.60;;;1.55;;
39276;SDS011;63149;48.086;-1.606;2023-07-29T12:00:50;4.75;;;1.85;;
39276;SDS011;63149;48.086;-1.606;2023-07-29T12:03:18;2.08;;;1.42;;
39276;SDS011;63149;48.086;-1.606;2023-07-29T12:05:45;2.00;;;1.38;;
39276;SDS011;63149;48.086;-1.606;2023-07-29T12:08:12;2.80;;;1.77;;
39276;SDS011;63149;48.086;-1.606;2023-07-29T12:10:39;2.65;;;1.50;;
39276;SDS011;63149;48.086;-1.606;2023-07-29T12:13:08;1.40;;;1.30;;
39276;SDS011;63149;48.086;-1.606;2023-07-29T12:15:37;1.92;;;1.30;;
39276;SDS011;63149;48.086;-1.606;2023-07-29T12:18:04;1.75;;;1.27;;
39276;SDS011;63149;48.086;-1.606;2023-07-29T12:20:31;1.15;;;1.08;;
39276;SDS011;63149;48.086;-1.606;2023-07-29T12:22:59;2.28;;;1.40;;
39276;SDS011;63149;48.086;-1.606;2023-07-29T12:25:27;3.13;;;1.40;;
39276;SDS011;63149;48.086;-1.606;2023-07-29T12:27:55;2.70;;;1.40;;
39276;SDS011;63149;48.086;-1.606;2023-07-29T12:30:23;2.42;;;1.67;;
39276;SDS011;63149;48.086;-1.606;2023-07-29T12:32:51;2.13;;;1.58;;
39276;SDS011;63149;48.086;-1.606;2023-07-29T12:35:18;6.32;;;1.60;;
39276;SDS011;63149;48.086;-1.606;2023-07-29T12:37:45;3.20;;;1.50;;
39276;SDS011;63149;48.086;-1.606;2023-07-29T12:40:21;3.20;;;1.30;;
39276;SDS011;63149;48.086;-1.606;2023-07-29T12:42:49;4.65;;;1.60;;
39276;SDS011;63149;48.086;-1.606;2023-07-29T12:45:16;2.92;;;1.52;;
39276;SDS011;63149;48.086;-1.606;2023-07-29T12:47:45;4.00;;;1.80;;
39276;SDS011;63149;48.086;-1.606;2023-07-29T12:50:12;1.95;;;1.40;;
39276;SDS011;63149;48.086;-1.606;2023-07-29T12:52:39;3.85;;;1.70;;
39276;SDS011;63149;48.086;-1.606;2023-07-29T12:55:06;3.10;;;1.50;;
39276;SDS011;63149;48.086;-1.606;2023-07-29T12:57:38;2.83;;;1.80;;
39276;SDS011;63149;48.086;-1.606;2023-07-29T13:00:06;1.85;;;1.40;;
39276;SDS011;63149;48.086;-1.606;2023-07-29T13:02:35;2.45;;;1.63;;
39276;SDS011;63149;48.086;-1.606;2023-07-29T13:05:03;2.00;;;1.52;;
39276;SDS011;63149;48.086;-1.606;2023-07-29T13:07:31;1.80;;;1.40;;
39276;SDS011;63149;48.086;-1.606;2023-07-29T13:09:58;2.08;;;1.48;;
39276;SDS011;63149;48.086;-1.606;2023-07-29T13:12:25;2.45;;;1.48;;
39276;SDS011;63149;48.086;-1.606;2023-07-29T13:14:52;2.47;;;1.73;;
39276;SDS011;63149;48.086;-1.606;2023-07-29T13:17:19;2.53;;;1.63;;
39276;SDS011;63149;48.086;-1.606;2023-07-29T13:19:46;3.22;;;1.67;;
39276;SDS011;63149;48.086;-1.606;2023-07-29T13:22:15;2.30;;;1.55;;
39276;SDS011;63149;48.086;-1.606;2023-07-29T13:24:42;2.88;;;1.58;;
39276;SDS011;63149;48.086;-1.606;2023-07-29T13:27:09;4.70;;;1.70;;
39276;SDS011;63149;48.086;-1.606;2023-07-29T13:29:36;3.80;;;1.45;;
39276;SDS011;63149;48.086;-1.606;2023-07-29T13:32:03;3.28;;;1.50;;
39276;SDS011;63149;48.086;-1.606;2023-07-29T13:34:31;2.90;;;1.50;;
39276;SDS011;63149;48.086;-1.606;2023-07-29T13:36:59;3.28;;;1.60;;
39276;SDS011;63149;48.086;-1.606;2023-07-29T13:39:27;3.88;;;1.73;;
39276;SDS011;63149;48.086;-1.606;2023-07-29T13:41:54;3.10;;;1.67;;
39276;SDS011;63149;48.086;-1.606;2023-07-29T13:44:22;3.13;;;1.70;;
39276;SDS011;63149;48.086;-1.606;2023-07-29T13:46:49;3.60;;;1.58;;
39276;SDS011;63149;48.086;-1.606;2023-07-29T13:49:16;3.50;;;1.38;;
39276;SDS011;63149;48.086;-1.606;2023-07-29T13:51:43;1.65;;;1.55;;
39276;SDS011;63149;48.086;-1.606;2023-07-29T13:54:10;1.60;;;1.30;;
39276;SDS011;63149;48.086;-1.606;2023-07-29T13:56:39;3.72;;;1.30;;
39276;SDS011;63149;48.086;-1.606;2023-07-29T13:59:06;4.60;;;1.30;;
39276;SDS011;63149;48.086;-1.606;2023-07-29T14:01:33;1.75;;;1.65;;
39276;SDS011;63149;48.086;-1.606;2023-07-29T14:04:00;3.95;;;1.58;;
39276;SDS011;63149;48.086;-1.606;2023-07-29T14:06:27;2.83;;;1.60;;
39276;SDS011;63149;48.086;-1.606;2023-07-29T14:08:55;1.88;;;1.40;;
39276;SDS011;63149;48.086;-1.606;2023-07-29T14:11:22;1.95;;;1.40;;
39276;SDS011;63149;48.086;-1.606;2023-07-29T14:13:51;3.55;;;1.88;;
39276;SDS011;63149;48.086;-1.606;2023-07-29T14:16:18;2.38;;;1.67;;
39276;SDS011;63149;48.086;-1.606;2023-07-29T14:18:45;3.13;;;1.88;;
39276;SDS011;63149;48.086;-1.606;2023-07-29T14:21:12;4.30;;;1.63;;
39276;SDS011;63149;48.086;-1.606;2023-07-29T14:23:39;2.47;;;1.60;;
39276;SDS011;63149;48.086;-1.606;2023-07-29T14:26:06;3.53;;;1.38;;
39276;SDS011;63149;48.086;-1.606;2023-07-29T14:28:34;2.97;;;1.73;;
39276;SDS011;63149;48.086;-1.606;2023-07-29T14:31:03;3.85;;;1.77;;
39276;SDS011;63149;48.086;-1.606;2023-07-29T14:33:30;4.35;;;1.90;;
39276;SDS011;63149;48.086;-1.606;2023-07-29T14:35:57;3.03;;;1.60;;
39276;SDS011;63149;48.086;-1.606;2023-07-29T14:38:24;4.32;;;1.60;;
39276;SDS011;63149;48.086;-1.606;2023-07-29T14:40:52;2.47;;;1.30;;
39276;SDS011;63149;48.086;-1.606;2023-07-29T14:43:21;3.53;;;1.50;;
39276;SDS011;63149;48.086;-1.606;2023-07-29T14:45:49;2.88;;;1.73;;
39276;SDS011;63149;48.086;-1.606;2023-07-29T14:48:17;2.47;;;1.70;;
39276;SDS011;63149;48.086;-1.606;2023-07-29T14:50:44;3.08;;;1.73;;
39276;SDS011;63149;48.086;-1.606;2023-07-29T14:53:11;3.88;;;1.60;;
39276;SDS011;63149;48.086;-1.606;2023-07-29T14:55:38;2.13;;;1.50;;
39276;SDS011;63149;48.086;-1.606;2023-07-29T14:58:05;2.38;;;2.00;;
39276;SDS011;63149;48.086;-1.606;2023-07-29T15:00:33;5.97;;;1.75;;
39276;SDS011;63149;48.086;-1.606;2023-07-29T15:03:00;6.07;;;1.83;;
39276;SDS011;63149;48.086;-1.606;2023-07-29T15:05:28;2.33;;;1.50;;
39276;SDS011;63149;48.086;-1.606;2023-07-29T15:07:56;2.80;;;1.42;;
39276;SDS011;63149;48.086;-1.606;2023-07-29T15:10:23;1.67;;;1.20;;
39276;SDS011;63149;48.086;-1.606;2023-07-29T15:12:50;4.20;;;1.50;;
39276;SDS011;63149;48.086;-1.606;2023-07-29T15:15:18;3.90;;;1.38;;
39276;SDS011;63149;48.086;-1.606;2023-07-29T15:17:45;3.22;;;1.67;;
39276;SDS011;63149;48.086;-1.606;2023-07-29T15:20:12;3.13;;;1.30;;
39276;SDS011;63149;48.086;-1.606;2023-07-29T15:22:40;3.63;;;1.65;;
39276;SDS011;63149;48.086;-1.606;2023-07-29T15:25:08;5.82;;;1.50;;
39276;SDS011;63149;48.086;-1.606;2023-07-29T15:27:35;4.05;;;1.60;;
39276;SDS011;63149;48.086;-1.606;2023-07-29T15:30:04;4.53;;;1.63;;
39276;SDS011;63149;48.086;-1.606;2023-07-29T15:32:32;2.75;;;1.35;;
39276;SDS011;63149;48.086;-1.606;2023-07-29T15:34:59;2.95;;;1.40;;
39276;SDS011;63149;48.086;-1.606;2023-07-29T15:37:26;3.13;;;1.40;;
39276;SDS011;63149;48.086;-1.606;2023-07-29T15:39:54;2.22;;;1.40;;
39276;SDS011;63149;48.086;-1.606;2023-07-29T15:42:21;2.70;;;1.33;;
39276;SDS011;63149;48.086;-1.606;2023-07-29T15:44:48;3.45;;;1.45;;
39276;SDS011;63149;48.086;-1.606;2023-07-29T15:47:14;2.40;;;1.10;;
39276;SDS011;63149;48.086;-1.606;2023-07-29T15:49:43;1.75;;;1.58;;
39276;SDS011;63149;48.086;-1.606;2023-07-29T15:52:10;3.28;;;2.10;;
39276;SDS011;63149;48.086;-1.606;2023-07-29T15:54:39;2.38;;;1.67;;
39276;SDS011;63149;48.086;-1.606;2023-07-29T15:57:08;3.50;;;1.60;;
39276;SDS011;63149;48.086;-1.606;2023-07-29T15:59:35;3.60;;;2.05;;
39276;SDS011;63149;48.086;-1.606;2023-07-29T16:02:02;3.80;;;2.03;;
39276;SDS011;63149;48.086;-1.606;2023-07-29T16:04:29;5.85;;;2.65;;
39276;SDS011;63149;48.086;-1.606;2023-07-29T16:06:56;4.13;;;2.35;;
39276;SDS011;63149;48.086;-1.606;2023-07-29T16:09:23;3.22;;;2.22;;
39276;SDS011;63149;48.086;-1.606;2023-07-29T16:11:51;2.83;;;2.15;;
39276;SDS011;63149;48.086;-1.606;2023-07-29T16:14:20;2.70;;;2.05;;
39276;SDS011;63149;48.086;-1.606;2023-07-29T16:16:48;5.32;;;2.25;;
39276;SDS011;63149;48.086;-1.606;2023-07-29T16:19:21;3.00;;;2.30;;
39276;SDS011;63149;48.086;-1.606;2023-07-29T16:21:49;4.80;;;2.40;;
39276;SDS011;63149;48.086;-1.606;2023-07-29T16:24:16;5.05;;;2.25;;
39276;SDS011;63149;48.086;-1.606;2023-07-29T16:26:43;3.30;;;2.15;;
39276;SDS011;63149;48.086;-1.606;2023-07-29T16:29:10;5.72;;;2.00;;
39276;SDS011;63149;48.086;-1.606;2023-07-29T16:31:38;3.03;;;2.38;;
39276;SDS011;63149;48.086;-1.606;2023-07-29T16:34:05;5.13;;;2.30;;
39276;SDS011;63149;48.086;-1.606;2023-07-29T16:36:32;4.60;;;2.47;;
39276;SDS011;63149;48.086;-1.606;2023-07-29T16:38:59;4.53;;;2.20;;
39276;SDS011;63149;48.086;-1.606;2023-07-29T16:41:26;6.20;;;2.83;;
39276;SDS011;63149;48.086;-1.606;2023-07-29T16:43:53;5.50;;;2.58;;
39276;SDS011;63149;48.086;-1.606;2023-07-29T16:46:20;3.20;;;2.30;;
39276;SDS011;63149;48.086;-1.606;2023-07-29T16:48:48;6.68;;;2.00;;
39276;SDS011;63149;48.086;-1.606;2023-07-29T16:51:15;3.60;;;1.70;;
39276;SDS011;63149;48.086;-1.606;2023-07-29T16:53:42;4.15;;;2.00;;
39276;SDS011;63149;48.086;-1.606;2023-07-29T16:56:09;4.47;;;2.42;;
39276;SDS011;63149;48.086;-1.606;2023-07-29T16:58:35;3.28;;;1.80;;
39276;SDS011;63149;48.086;-1.606;2023-07-29T17:01:02;4.40;;;1.90;;
39276;SDS011;63149;48.086;-1.606;2023-07-29T17:03:29;3.50;;;2.15;;
39276;SDS011;63149;48.086;-1.606;2023-07-29T17:05:58;6.07;;;1.92;;
39276;SDS011;63149;48.086;-1.606;2023-07-29T17:08:24;3.05;;;1.67;;
39276;SDS011;63149;48.086;-1.606;2023-07-29T17:10:51;2.65;;;1.48;;
39276;SDS011;63149;48.086;-1.606;2023-07-29T17:13:18;2.67;;;1.50;;
39276;SDS011;63149;48.086;-1.606;2023-07-29T17:15:45;3.10;;;1.35;;
39276;SDS011;63149;48.086;-1.606;2023-07-29T17:18:12;2.95;;;1.30;;
39276;SDS011;63149;48.086;-1.606;2023-07-29T17:20:39;4.00;;;1.30;;
39276;SDS011;63149;48.086;-1.606;2023-07-29T17:23:08;1.92;;;1.20;;
39276;SDS011;63149;48.086;-1.606;2023-07-29T17:25:34;2.65;;;1.48;;
39276;SDS011;63149;48.086;-1.606;2023-07-29T17:28:01;2.33;;;1.40;;
39276;SDS011;63149;48.086;-1.606;2023-07-29T17:30:30;2.90;;;1.08;;
39276;SDS011;63149;48.086;-1.606;2023-07-29T17:33:00;2.40;;;1.58;;
39276;SDS011;63149;48.086;-1.606;2023-07-29T17:35:27;4.30;;;1.70;;
39276;SDS011;63149;48.086;-1.606;2023-07-29T17:37:54;3.78;;;1.50;;
39276;SDS011;63149;48.086;-1.606;2023-07-29T17:40:22;5.35;;;1.33;;
39276;SDS011;63149;48.086;-1.606;2023-07-29T17:42:49;4.38;;;1.83;;
39276;SDS011;63149;48.086;-1.606;2023-07-29T17:45:16;6.97;;;2.20;;
39276;SDS011;63149;48.086;-1.606;2023-07-29T17:47:43;5.85;;;2.00;;
39276;SDS011;63149;48.086;-1.606;2023-07-29T17:50:10;4.00;;;1.90;;
39276;SDS011;63149;48.086;-1.606;2023-07-29T17:52:36;4.32;;;1.40;;
39276;SDS011;63149;48.086;-1.606;2023-07-29T17:55:03;2.63;;;1.52;;
39276;SDS011;63149;48.086;-1.606;2023-07-29T17:57:32;1.50;;;1.40;;
39276;SDS011;63149;48.086;-1.606;2023-07-29T17:59:59;2.10;;;1.42;;
39276;SDS011;63149;48.086;-1.606;2023-07-29T18:02:28;2.15;;;1.30;;
39276;SDS011;63149;48.086;-1.606;2023-07-29T18:04:55;2.17;;;1.40;;
39276;SDS011;63149;48.086;-1.606;2023-07-29T18:07:23;5.72;;;1.58;;
39276;SDS011;63149;48.086;-1.606;2023-07-29T18:09:50;2.25;;;1.40;;
39276;SDS011;63149;48.086;-1.606;2023-07-29T18:12:16;2.35;;;1.50;;
39276;SDS011;63149;48.086;-1.606;2023-07-29T18:14:45;2.92;;;1.23;;
39276;SDS011;63149;48.086;-1.606;2023-07-29T18:17:12;8.23;;;1.70;;
39276;SDS011;63149;48.086;-1.606;2023-07-29T18:19:39;4.22;;;1.70;;
39276;SDS011;63149;48.086;-1.606;2023-07-29T18:22:07;2.72;;;1.40;;
39276;SDS011;63149;48.086;-1.606;2023-07-29T18:24:34;4.10;;;1.60;;
39276;SDS011;63149;48.086;-1.606;2023-07-29T18:27:01;1.92;;;1.42;;
39276;SDS011;63149;48.086;-1.606;2023-07-29T18:29:28;3.45;;;1.75;;
39276;SDS011;63149;48.086;-1.606;2023-07-29T18:31:56;3.50;;;1.60;;
39276;SDS011;63149;48.086;-1.606;2023-07-29T18:34:23;2.78;;;1.58;;
39276;SDS011;63149;48.086;-1.606;2023-07-29T18:36:50;2.65;;;1.60;;
39276;SDS011;63149;48.086;-1.606;2023-07-29T18:39:17;2.20;;;1.60;;
39276;SDS011;63149;48.086;-1.606;2023-07-29T18:41:44;3.65;;;1.50;;
39276;SDS011;63149;48.086;-1.606;2023-07-29T18:44:11;2.08;;;1.20;;
39276;SDS011;63149;48.086;-1.606;2023-07-29T18:46:38;2.97;;;1.80;;
39276;SDS011;63149;48.086;-1.606;2023-07-29T18:49:06;1.83;;;1.55;;
39276;SDS011;63149;48.086;-1.606;2023-07-29T18:51:34;3.03;;;1.70;;
39276;SDS011;63149;48.086;-1.606;2023-07-29T18:54:01;3.13;;;1.35;;
39276;SDS011;63149;48.086;-1.606;2023-07-29T18:56:28;4.45;;;1.58;;
39276;SDS011;63149;48.086;-1.606;2023-07-29T18:58:55;2.22;;;1.35;;
39276;SDS011;63149;48.086;-1.606;2023-07-29T19:01:22;3.30;;;1.52;;
39276;SDS011;63149;48.086;-1.606;2023-07-29T19:03:50;3.17;;;1.40;;
39276;SDS011;63149;48.086;-1.606;2023-07-29T19:06:18;2.60;;;1.77;;
39276;SDS011;63149;48.086;-1.606;2023-07-29T19:08:45;2.25;;;1.50;;
39276;SDS011;63149;48.086;-1.606;2023-07-29T19:11:14;3.40;;;1.73;;
39276;SDS011;63149;48.086;-1.606;2023-07-29T19:13:41;2.53;;;1.70;;
39276;SDS011;63149;48.086;-1.606;2023-07-29T19:16:08;4.85;;;1.55;;
39276;SDS011;63149;48.086;-1.606;2023-07-29T19:18:35;4.40;;;1.73;;
39276;SDS011;63149;48.086;-1.606;2023-07-29T19:21:02;6.07;;;2.03;;
39276;SDS011;63149;48.086;-1.606;2023-07-29T19:23:30;3.88;;;1.73;;
39276;SDS011;63149;48.086;-1.606;2023-07-29T19:25:57;2.03;;;1.50;;
39276;SDS011;63149;48.086;-1.606;2023-07-29T19:28:24;2.50;;;1.50;;
39276;SDS011;63149;48.086;-1.606;2023-07-29T19:30:51;1.65;;;1.30;;
39276;SDS011;63149;48.086;-1.606;2023-07-29T19:33:18;3.42;;;1.83;;
39276;SDS011;63149;48.086;-1.606;2023-07-29T19:35:45;8.30;;;2.58;;
39276;SDS011;63149;48.086;-1.606;2023-07-29T19:38:18;3.47;;;1.73;;
39276;SDS011;63149;48.086;-1.606;2023-07-29T19:40:47;3.67;;;1.95;;
39276;SDS011;63149;48.086;-1.606;2023-07-29T19:43:14;1.98;;;1.60;;
39276;SDS011;63149;48.086;-1.606;2023-07-29T19:45:44;4.47;;;1.65;;
39276;SDS011;63149;48.086;-1.606;2023-07-29T19:48:12;3.95;;;1.60;;
39276;SDS011;63149;48.086;-1.606;2023-07-29T19:50:39;4.28;;;2.30;;
39276;SDS011;63149;48.086;-1.606;2023-07-29T19:53:06;4.00;;;1.83;;
39276;SDS011;63149;48.086;-1.606;2023-07-29T19:55:33;4.10;;;1.88;;
39276;SDS011;63149;48.086;-1.606;2023-07-29T19:58:01;3.33;;;1.73;;
39276;SDS011;63149;48.086;-1.606;2023-07-29T20:00:28;4.50;;;1.60;;
39276;SDS011;63149;48.086;-1.606;2023-07-29T20:02:56;3.80;;;1.75;;
39276;SDS011;63149;48.086;-1.606;2023-07-29T20:05:23;2.20;;;1.42;;
39276;SDS011;63149;48.086;-1.606;2023-07-29T20:07:50;4.00;;;1.70;;
39276;SDS011;63149;48.086;-1.606;2023-07-29T20:10:17;3.20;;;1.73;;
39276;SDS011;63149;48.086;-1.606;2023-07-29T20:12:44;3.22;;;1.30;;
39276;SDS011;63149;48.086;-1.606;2023-07-29T20:15:12;4.82;;;1.77;;
39276;SDS011;63149;48.086;-1.606;2023-07-29T20:17:39;2.25;;;1.60;;
39276;SDS011;63149;48.086;-1.606;2023-07-29T20:20:08;3.58;;;2.03;;
39276;SDS011;63149;48.086;-1.606;2023-07-29T20:22:36;6.05;;;1.80;;
39276;SDS011;63149;48.086;-1.606;2023-07-29T20:25:03;3.38;;;1.63;;
39276;SDS011;63149;48.086;-1.606;2023-07-29T20:27:30;2.78;;;1.75;;
39276;SDS011;63149;48.086;-1.606;2023-07-29T20:29:57;5.45;;;2.35;;